sensor_id;sensor_type;location;lat;lon;timestamp;temperature;humidity
52509;DHT22;38420;53.150;6.370;2023-02-28T00:00:21;4.20;99.90
52509;DHT22;38420;53.150;6.370;2023-02-28T00:02:47;4.20;99.90
52509;DHT22;38420;53.150;6.370;2023-02-28T00:05:15;4.20;99.90
52509;DHT22;38420;53.150;6.370;2023-02-28T00:07:41;4.20;99.90
52509;DHT22;38420;53.150;6.370;2023-02-28T00:10:09;4.00;99.90
52509;DHT22;38420;53.150;6.370;2023-02-28T00:12:36;4.10;99.90
52509;DHT22;38420;53.150;6.370;2023-02-28T00:15:04;4.10;99.90
52509;DHT22;38420;53.150;6.370;2023-02-28T00:17:30;4.20;99.90
52509;DHT22;38420;53.150;6.370;2023-02-28T00:19:56;3.80;99.90
52509;DHT22;38420;53.150;6.370;2023-02-28T00:22:27;4.00;99.90
52509;DHT22;38420;53.150;6.370;2023-02-28T00:24:52;3.80;99.90
52509;DHT22;38420;53.150;6.370;2023-02-28T00:27:18;4.00;99.90
52509;DHT22;38420;53.150;6.370;2023-02-28T00:29:43;3.80;99.90
52509;DHT22;38420;53.150;6.370;2023-02-28T00:32:11;3.70;99.90
52509;DHT22;38420;53.150;6.370;2023-02-28T00:34:36;4.10;99.90
52509;DHT22;38420;53.150;6.370;2023-02-28T00:37:07;3.70;99.90
52509;DHT22;38420;53.150;6.370;2023-02-28T00:39:36;4.00;99.90
52509;DHT22;38420;53.150;6.370;2023-02-28T00:42:03;3.90;99.90
52509;DHT22;38420;53.150;6.370;2023-02-28T00:44:30;4.10;99.90
52509;DHT22;38420;53.150;6.370;2023-02-28T00:46:56;3.70;99.90
52509;DHT22;38420;53.150;6.370;2023-02-28T00:49:22;4.10;99.90
52509;DHT22;38420;53.150;6.370;2023-02-28T00:51:48;3.60;99.90
52509;DHT22;38420;53.150;6.370;2023-02-28T00:54:14;4.10;99.90
52509;DHT22;38420;53.150;6.370;2023-02-28T00:56:40;3.80;99.90
52509;DHT22;38420;53.150;6.370;2023-02-28T00:59:06;4.10;99.90
52509;DHT22;38420;53.150;6.370;2023-02-28T01:01:32;3.80;99.90
52509;DHT22;38420;53.150;6.370;2023-02-28T01:03:57;3.50;99.90
52509;DHT22;38420;53.150;6.370;2023-02-28T01:06:23;3.60;99.90
52509;DHT22;38420;53.150;6.370;2023-02-28T01:08:49;3.50;99.90
52509;DHT22;38420;53.150;6.370;2023-02-28T01:11:16;4.10;99.90
52509;DHT22;38420;53.150;6.370;2023-02-28T01:13:44;3.60;99.90
52509;DHT22;38420;53.150;6.370;2023-02-28T01:16:10;4.00;99.90
52509;DHT22;38420;53.150;6.370;2023-02-28T01:18:36;3.60;99.90
52509;DHT22;38420;53.150;6.370;2023-02-28T01:21:07;3.60;99.90
52509;DHT22;38420;53.150;6.370;2023-02-28T01:23:33;4.00;99.90
52509;DHT22;38420;53.150;6.370;2023-02-28T01:26:04;4.00;99.90
52509;DHT22;38420;53.150;6.370;2023-02-28T01:28:30;4.10;99.90
52509;DHT22;38420;53.150;6.370;2023-02-28T01:30:56;3.90;99.90
52509;DHT22;38420;53.150;6.370;2023-02-28T01:33:21;3.90;99.90
52509;DHT22;38420;53.150;6.370;2023-02-28T01:35:47;3.50;99.90
52509;DHT22;38420;53.150;6.370;2023-02-28T01:38:13;3.70;99.90
52509;DHT22;38420;53.150;6.370;2023-02-28T01:40:39;4.00;99.90
52509;DHT22;38420;53.150;6.370;2023-02-28T01:43:21;3.70;99.90
52509;DHT22;38420;53.150;6.370;2023-02-28T01:45:47;3.50;99.90
52509;DHT22;38420;53.150;6.370;2023-02-28T01:48:13;3.80;99.90
52509;DHT22;38420;53.150;6.370;2023-02-28T01:50:42;3.90;99.90
52509;DHT22;38420;53.150;6.370;2023-02-28T01:53:13;3.50;99.90
52509;DHT22;38420;53.150;6.370;2023-02-28T01:55:41;3.50;99.90
52509;DHT22;38420;53.150;6.370;2023-02-28T01:58:08;3.60;99.90
52509;DHT22;38420;53.150;6.370;2023-02-28T02:00:35;3.80;99.90
52509;DHT22;38420;53.150;6.370;2023-02-28T02:03:12;3.70;99.90
52509;DHT22;38420;53.150;6.370;2023-02-28T02:05:39;4.00;99.90
52509;DHT22;38420;53.150;6.370;2023-02-28T02:08:09;4.00;99.90
52509;DHT22;38420;53.150;6.370;2023-02-28T02:11:00;3.60;99.90
52509;DHT22;38420;53.150;6.370;2023-02-28T02:13:46;4.10;99.90
52509;DHT22;38420;53.150;6.370;2023-02-28T02:33:24;3.60;99.90
52509;DHT22;38420;53.150;6.370;2023-02-28T02:36:05;3.40;99.90
52509;DHT22;38420;53.150;6.370;2023-02-28T02:38:53;4.10;99.90
52509;DHT22;38420;53.150;6.370;2023-02-28T02:41:40;3.50;99.90
52509;DHT22;38420;53.150;6.370;2023-02-28T02:44:24;3.80;99.90
52509;DHT22;38420;53.150;6.370;2023-02-28T02:46:58;3.70;99.90
52509;DHT22;38420;53.150;6.370;2023-02-28T02:49:30;3.80;99.90
52509;DHT22;38420;53.150;6.370;2023-02-28T02:52:00;3.60;99.90
52509;DHT22;38420;53.150;6.370;2023-02-28T02:54:33;4.00;99.90
52509;DHT22;38420;53.150;6.370;2023-02-28T02:57:05;4.00;99.90
52509;DHT22;38420;53.150;6.370;2023-02-28T02:59:32;3.60;99.90
52509;DHT22;38420;53.150;6.370;2023-02-28T03:02:02;3.60;99.90
52509;DHT22;38420;53.150;6.370;2023-02-28T03:04:33;3.80;99.90
52509;DHT22;38420;53.150;6.370;2023-02-28T03:07:00;3.80;99.90
52509;DHT22;38420;53.150;6.370;2023-02-28T03:09:26;3.40;99.90
52509;DHT22;38420;53.150;6.370;2023-02-28T03:11:55;3.90;99.90
52509;DHT22;38420;53.150;6.370;2023-02-28T03:20:04;3.80;99.90
52509;DHT22;38420;53.150;6.370;2023-02-28T03:23:10;3.50;99.90
52509;DHT22;38420;53.150;6.370;2023-02-28T03:28:30;3.90;99.90
52509;DHT22;38420;53.150;6.370;2023-02-28T03:36:52;3.30;99.90
52509;DHT22;38420;53.150;6.370;2023-02-28T03:39:23;3.60;99.90
52509;DHT22;38420;53.150;6.370;2023-02-28T03:41:58;4.10;99.90
52509;DHT22;38420;53.150;6.370;2023-02-28T03:44:30;3.20;99.90
52509;DHT22;38420;53.150;6.370;2023-02-28T03:47:03;3.30;99.90
52509;DHT22;38420;53.150;6.370;2023-02-28T03:49:42;3.90;99.90
52509;DHT22;38420;53.150;6.370;2023-02-28T03:52:11;3.50;99.90
52509;DHT22;38420;53.150;6.370;2023-02-28T03:54:42;3.40;99.90
52509;DHT22;38420;53.150;6.370;2023-02-28T03:57:20;4.20;99.90
52509;DHT22;38420;53.150;6.370;2023-02-28T03:59:56;3.20;99.90
52509;DHT22;38420;53.150;6.370;2023-02-28T04:02:25;4.00;99.90
52509;DHT22;38420;53.150;6.370;2023-02-28T04:04:50;3.40;99.90
52509;DHT22;38420;53.150;6.370;2023-02-28T04:07:17;3.80;99.90
52509;DHT22;38420;53.150;6.370;2023-02-28T04:09:43;3.30;99.90
52509;DHT22;38420;53.150;6.370;2023-02-28T04:12:09;3.90;99.90
52509;DHT22;38420;53.150;6.370;2023-02-28T04:14:34;3.30;99.90
52509;DHT22;38420;53.150;6.370;2023-02-28T04:17:00;3.30;99.90
52509;DHT22;38420;53.150;6.370;2023-02-28T04:19:25;4.10;99.90
52509;DHT22;38420;53.150;6.370;2023-02-28T04:21:52;3.20;99.90
52509;DHT22;38420;53.150;6.370;2023-02-28T04:24:22;4.00;99.90
52509;DHT22;38420;53.150;6.370;2023-02-28T04:26:50;3.00;99.90
52509;DHT22;38420;53.150;6.370;2023-02-28T04:29:32;3.70;99.90
52509;DHT22;38420;53.150;6.370;2023-02-28T04:31:59;3.00;99.90
52509;DHT22;38420;53.150;6.370;2023-02-28T04:34:26;3.10;99.90
52509;DHT22;38420;53.150;6.370;2023-02-28T04:36:52;3.70;99.90
52509;DHT22;38420;53.150;6.370;2023-02-28T04:39:22;3.90;99.90
52509;DHT22;38420;53.150;6.370;2023-02-28T04:41:48;3.80;99.90
52509;DHT22;38420;53.150;6.370;2023-02-28T04:44:14;3.20;99.90
52509;DHT22;38420;53.150;6.370;2023-02-28T04:46:40;2.80;99.90
52509;DHT22;38420;53.150;6.370;2023-02-28T04:49:06;3.60;99.90
52509;DHT22;38420;53.150;6.370;2023-02-28T04:51:32;3.10;99.90
52509;DHT22;38420;53.150;6.370;2023-02-28T04:53:57;2.80;99.90
52509;DHT22;38420;53.150;6.370;2023-02-28T04:56:23;2.60;99.90
52509;DHT22;38420;53.150;6.370;2023-02-28T04:58:49;3.40;99.90
52509;DHT22;38420;53.150;6.370;2023-02-28T05:01:21;3.20;99.90
52509;DHT22;38420;53.150;6.370;2023-02-28T05:03:48;3.40;99.90
52509;DHT22;38420;53.150;6.370;2023-02-28T05:06:14;3.40;99.90
52509;DHT22;38420;53.150;6.370;2023-02-28T05:08:41;2.90;99.90
52509;DHT22;38420;53.150;6.370;2023-02-28T05:11:14;3.20;99.90
52509;DHT22;38420;53.150;6.370;2023-02-28T05:13:40;2.20;99.90
52509;DHT22;38420;53.150;6.370;2023-02-28T05:16:05;2.90;99.90
52509;DHT22;38420;53.150;6.370;2023-02-28T05:18:31;2.40;99.90
52509;DHT22;38420;53.150;6.370;2023-02-28T05:20:57;2.90;99.90
52509;DHT22;38420;53.150;6.370;2023-02-28T05:23:23;3.30;99.90
52509;DHT22;38420;53.150;6.370;2023-02-28T05:25:48;2.90;99.90
52509;DHT22;38420;53.150;6.370;2023-02-28T05:28:14;2.50;99.90
52509;DHT22;38420;53.150;6.370;2023-02-28T05:30:40;2.50;99.90
52509;DHT22;38420;53.150;6.370;2023-02-28T05:33:05;2.10;99.90
52509;DHT22;38420;53.150;6.370;2023-02-28T05:35:31;3.00;99.90
52509;DHT22;38420;53.150;6.370;2023-02-28T05:37:57;3.10;99.90
52509;DHT22;38420;53.150;6.370;2023-02-28T05:40:23;3.20;99.90
52509;DHT22;38420;53.150;6.370;2023-02-28T05:42:50;2.10;99.90
52509;DHT22;38420;53.150;6.370;2023-02-28T05:45:16;2.80;99.90
52509;DHT22;38420;53.150;6.370;2023-02-28T05:47:42;3.00;99.90
52509;DHT22;38420;53.150;6.370;2023-02-28T05:50:08;2.00;99.90
52509;DHT22;38420;53.150;6.370;2023-02-28T05:52:35;2.80;99.90
52509;DHT22;38420;53.150;6.370;2023-02-28T05:55:01;2.50;99.90
52509;DHT22;38420;53.150;6.370;2023-02-28T05:57:27;2.00;99.90
52509;DHT22;38420;53.150;6.370;2023-02-28T05:59:52;3.10;99.90
52509;DHT22;38420;53.150;6.370;2023-02-28T06:02:18;1.90;99.90
52509;DHT22;38420;53.150;6.370;2023-02-28T06:04:44;2.00;99.90
52509;DHT22;38420;53.150;6.370;2023-02-28T06:07:10;2.10;99.90
52509;DHT22;38420;53.150;6.370;2023-02-28T06:09:36;3.00;99.90
52509;DHT22;38420;53.150;6.370;2023-02-28T06:12:04;2.00;99.90
52509;DHT22;38420;53.150;6.370;2023-02-28T06:14:31;2.10;99.90
52509;DHT22;38420;53.150;6.370;2023-02-28T06:16:58;2.20;99.90
52509;DHT22;38420;53.150;6.370;2023-02-28T06:19:24;3.00;99.90
52509;DHT22;38420;53.150;6.370;2023-02-28T06:21:51;2.10;99.90
52509;DHT22;38420;53.150;6.370;2023-02-28T06:24:19;1.80;99.90
52509;DHT22;38420;53.150;6.370;2023-02-28T06:26:45;2.20;99.90
52509;DHT22;38420;53.150;6.370;2023-02-28T06:29:11;1.90;99.90
52509;DHT22;38420;53.150;6.370;2023-02-28T06:31:37;3.00;99.90
52509;DHT22;38420;53.150;6.370;2023-02-28T06:34:04;1.80;99.90
52509;DHT22;38420;53.150;6.370;2023-02-28T06:36:30;2.40;99.90
52509;DHT22;38420;53.150;6.370;2023-02-28T06:38:55;2.00;99.90
52509;DHT22;38420;53.150;6.370;2023-02-28T06:41:23;1.90;99.90
52509;DHT22;38420;53.150;6.370;2023-02-28T06:43:49;2.70;99.90
52509;DHT22;38420;53.150;6.370;2023-02-28T06:46:15;1.70;99.90
52509;DHT22;38420;53.150;6.370;2023-02-28T06:48:42;2.60;99.90
52509;DHT22;38420;53.150;6.370;2023-02-28T06:51:11;2.70;99.90
52509;DHT22;38420;53.150;6.370;2023-02-28T06:53:38;1.70;99.90
52509;DHT22;38420;53.150;6.370;2023-02-28T06:56:06;1.80;99.90
52509;DHT22;38420;53.150;6.370;2023-02-28T06:58:32;2.20;99.90
52509;DHT22;38420;53.150;6.370;2023-02-28T07:00:58;2.70;99.90
52509;DHT22;38420;53.150;6.370;2023-02-28T07:03:24;2.60;99.90
52509;DHT22;38420;53.150;6.370;2023-02-28T07:05:49;1.90;99.90
52509;DHT22;38420;53.150;6.370;2023-02-28T07:08:16;1.50;99.90
52509;DHT22;38420;53.150;6.370;2023-02-28T07:10:42;2.30;99.90
52509;DHT22;38420;53.150;6.370;2023-02-28T07:13:08;2.40;99.90
52509;DHT22;38420;53.150;6.370;2023-02-28T07:15:34;2.50;99.90
52509;DHT22;38420;53.150;6.370;2023-02-28T07:18:00;2.30;99.90
52509;DHT22;38420;53.150;6.370;2023-02-28T07:20:26;2.30;99.90
52509;DHT22;38420;53.150;6.370;2023-02-28T07:22:52;1.50;99.90
52509;DHT22;38420;53.150;6.370;2023-02-28T07:25:25;2.20;99.90
52509;DHT22;38420;53.150;6.370;2023-02-28T07:27:51;2.40;99.90
52509;DHT22;38420;53.150;6.370;2023-02-28T07:30:17;2.20;99.90
52509;DHT22;38420;53.150;6.370;2023-02-28T07:32:42;1.60;99.90
52509;DHT22;38420;53.150;6.370;2023-02-28T07:35:08;1.60;99.90
52509;DHT22;38420;53.150;6.370;2023-02-28T07:37:34;2.10;99.90
52509;DHT22;38420;53.150;6.370;2023-02-28T07:40:10;1.40;99.90
52509;DHT22;38420;53.150;6.370;2023-02-28T07:42:42;1.50;99.90
52509;DHT22;38420;53.150;6.370;2023-02-28T07:45:10;2.10;99.90
52509;DHT22;38420;53.150;6.370;2023-02-28T07:47:37;1.50;99.90
52509;DHT22;38420;53.150;6.370;2023-02-28T07:50:05;1.50;99.90
52509;DHT22;38420;53.150;6.370;2023-02-28T07:52:30;2.10;99.90
52509;DHT22;38420;53.150;6.370;2023-02-28T07:54:57;1.50;99.90
52509;DHT22;38420;53.150;6.370;2023-02-28T07:57:23;1.50;99.90
52509;DHT22;38420;53.150;6.370;2023-02-28T07:59:48;1.60;99.90
52509;DHT22;38420;53.150;6.370;2023-02-28T08:02:15;1.60;99.90
52509;DHT22;38420;53.150;6.370;2023-02-28T08:04:41;2.30;99.90
52509;DHT22;38420;53.150;6.370;2023-02-28T08:07:07;2.40;99.90
52509;DHT22;38420;53.150;6.370;2023-02-28T08:09:33;1.70;99.90
52509;DHT22;38420;53.150;6.370;2023-02-28T08:11:59;1.80;99.90
52509;DHT22;38420;53.150;6.370;2023-02-28T08:14:25;2.60;99.90
52509;DHT22;38420;53.150;6.370;2023-02-28T08:16:51;2.70;99.90
52509;DHT22;38420;53.150;6.370;2023-02-28T08:19:16;2.20;99.90
52509;DHT22;38420;53.150;6.370;2023-02-28T08:21:42;2.20;99.90
52509;DHT22;38420;53.150;6.370;2023-02-28T08:24:07;2.50;99.90
52509;DHT22;38420;53.150;6.370;2023-02-28T08:26:33;2.50;99.90
52509;DHT22;38420;53.150;6.370;2023-02-28T08:28:59;3.00;99.90
52509;DHT22;38420;53.150;6.370;2023-02-28T08:31:24;2.50;99.90
52509;DHT22;38420;53.150;6.370;2023-02-28T08:33:50;2.70;99.90
52509;DHT22;38420;53.150;6.370;2023-02-28T08:36:18;2.70;99.90
52509;DHT22;38420;53.150;6.370;2023-02-28T08:38:45;2.50;99.90
52509;DHT22;38420;53.150;6.370;2023-02-28T08:41:12;2.20;99.90
52509;DHT22;38420;53.150;6.370;2023-02-28T08:43:38;3.20;99.90
52509;DHT22;38420;53.150;6.370;2023-02-28T08:46:05;3.20;99.90
52509;DHT22;38420;53.150;6.370;2023-02-28T08:48:33;2.40;99.90
52509;DHT22;38420;53.150;6.370;2023-02-28T08:51:05;2.30;99.90
52509;DHT22;38420;53.150;6.370;2023-02-28T08:53:32;2.40;99.90
52509;DHT22;38420;53.150;6.370;2023-02-28T08:56:06;2.60;99.90
52509;DHT22;38420;53.150;6.370;2023-02-28T08:58:32;3.40;99.90
52509;DHT22;38420;53.150;6.370;2023-02-28T09:00:57;3.40;99.90
52509;DHT22;38420;53.150;6.370;2023-02-28T09:03:23;2.60;99.90
52509;DHT22;38420;53.150;6.370;2023-02-28T09:06:00;3.10;99.90
52509;DHT22;38420;53.150;6.370;2023-02-28T09:08:28;2.50;99.90
52509;DHT22;38420;53.150;6.370;2023-02-28T09:10:54;2.40;99.90
52509;DHT22;38420;53.150;6.370;2023-02-28T09:13:22;3.40;99.90
52509;DHT22;38420;53.150;6.370;2023-02-28T09:15:48;2.90;99.90
52509;DHT22;38420;53.150;6.370;2023-02-28T09:18:14;2.90;99.90
52509;DHT22;38420;53.150;6.370;2023-02-28T09:20:41;3.00;99.90
52509;DHT22;38420;53.150;6.370;2023-02-28T09:23:08;3.40;99.90
52509;DHT22;38420;53.150;6.370;2023-02-28T09:25:34;3.90;99.90
52509;DHT22;38420;53.150;6.370;2023-02-28T09:28:00;3.60;99.90
52509;DHT22;38420;53.150;6.370;2023-02-28T09:30:26;3.20;99.90
52509;DHT22;38420;53.150;6.370;2023-02-28T09:32:52;3.70;99.90
52509;DHT22;38420;53.150;6.370;2023-02-28T09:35:19;4.30;99.90
52509;DHT22;38420;53.150;6.370;2023-02-28T09:37:47;3.70;99.90
52509;DHT22;38420;53.150;6.370;2023-02-28T09:40:13;3.90;99.90
52509;DHT22;38420;53.150;6.370;2023-02-28T09:42:40;4.30;99.90
52509;DHT22;38420;53.150;6.370;2023-02-28T09:45:28;4.20;99.90
52509;DHT22;38420;53.150;6.370;2023-02-28T09:47:59;3.50;99.90
52509;DHT22;38420;53.150;6.370;2023-02-28T09:50:36;4.00;99.90
52509;DHT22;38420;53.150;6.370;2023-02-28T09:53:09;4.60;99.90
52509;DHT22;38420;53.150;6.370;2023-02-28T09:55:42;3.90;99.90
52509;DHT22;38420;53.150;6.370;2023-02-28T09:58:26;4.30;99.90
52509;DHT22;38420;53.150;6.370;2023-02-28T10:06:55;4.90;99.90
52509;DHT22;38420;53.150;6.370;2023-02-28T10:09:32;5.30;99.90
52509;DHT22;38420;53.150;6.370;2023-02-28T10:12:03;5.20;99.90
52509;DHT22;38420;53.150;6.370;2023-02-28T10:14:32;5.40;99.90
52509;DHT22;38420;53.150;6.370;2023-02-28T10:17:05;5.50;99.90
52509;DHT22;38420;53.150;6.370;2023-02-28T10:20:02;5.80;99.90
52509;DHT22;38420;53.150;6.370;2023-02-28T10:25:29;5.80;99.90
52509;DHT22;38420;53.150;6.370;2023-02-28T10:27:58;5.80;99.90
52509;DHT22;38420;53.150;6.370;2023-02-28T10:30:26;5.90;99.90
52509;DHT22;38420;53.150;6.370;2023-02-28T10:32:52;6.10;99.90
52509;DHT22;38420;53.150;6.370;2023-02-28T10:35:24;6.20;99.90
52509;DHT22;38420;53.150;6.370;2023-02-28T10:37:55;6.30;99.90
52509;DHT22;38420;53.150;6.370;2023-02-28T10:45:36;6.30;99.90
52509;DHT22;38420;53.150;6.370;2023-02-28T10:58:52;6.50;99.90
52509;DHT22;38420;53.150;6.370;2023-02-28T11:03:57;6.50;99.90
52509;DHT22;38420;53.150;6.370;2023-02-28T11:06:26;6.50;99.90
52509;DHT22;38420;53.150;6.370;2023-02-28T11:08:57;6.50;99.90
52509;DHT22;38420;53.150;6.370;2023-02-28T11:11:24;6.50;99.90
52509;DHT22;38420;53.150;6.370;2023-02-28T11:13:53;6.60;99.90
52509;DHT22;38420;53.150;6.370;2023-02-28T11:16:20;6.70;99.90
52509;DHT22;38420;53.150;6.370;2023-02-28T11:18:54;6.60;99.90
52509;DHT22;38420;53.150;6.370;2023-02-28T11:21:26;6.60;99.90
52509;DHT22;38420;53.150;6.370;2023-02-28T11:24:04;6.60;99.90
52509;DHT22;38420;53.150;6.370;2023-02-28T11:26:40;6.60;99.90
52509;DHT22;38420;53.150;6.370;2023-02-28T11:29:12;6.60;99.90
52509;DHT22;38420;53.150;6.370;2023-02-28T11:31:41;6.60;99.90
52509;DHT22;38420;53.150;6.370;2023-02-28T11:34:25;6.50;99.90
52509;DHT22;38420;53.150;6.370;2023-02-28T11:36:52;6.60;99.90
52509;DHT22;38420;53.150;6.370;2023-02-28T11:39:19;6.60;99.90
52509;DHT22;38420;53.150;6.370;2023-02-28T11:47:15;6.70;99.90
52509;DHT22;38420;53.150;6.370;2023-02-28T11:50:04;6.70;99.90
52509;DHT22;38420;53.150;6.370;2023-02-28T11:52:54;6.70;99.90
52509;DHT22;38420;53.150;6.370;2023-02-28T11:55:27;6.70;99.90
52509;DHT22;38420;53.150;6.370;2023-02-28T12:00:40;6.90;99.90
52509;DHT22;38420;53.150;6.370;2023-02-28T12:03:26;7.00;99.90
52509;DHT22;38420;53.150;6.370;2023-02-28T12:06:06;7.10;99.90
52509;DHT22;38420;53.150;6.370;2023-02-28T12:09:04;7.10;99.90
52509;DHT22;38420;53.150;6.370;2023-02-28T12:17:29;7.40;99.90
52509;DHT22;38420;53.150;6.370;2023-02-28T12:20:16;7.40;99.90
52509;DHT22;38420;53.150;6.370;2023-02-28T12:28:41;7.60;99.90
52509;DHT22;38420;53.150;6.370;2023-02-28T12:34:03;7.60;99.90
52509;DHT22;38420;53.150;6.370;2023-02-28T12:36:29;7.60;99.90
52509;DHT22;38420;53.150;6.370;2023-02-28T12:39:08;7.70;99.90
52509;DHT22;38420;53.150;6.370;2023-02-28T12:41:45;7.70;99.90
52509;DHT22;38420;53.150;6.370;2023-02-28T12:44:19;7.80;99.90
52509;DHT22;38420;53.150;6.370;2023-02-28T12:46:51;7.90;99.90
52509;DHT22;38420;53.150;6.370;2023-02-28T12:49:31;8.00;99.90
52509;DHT22;38420;53.150;6.370;2023-02-28T12:51:59;8.10;99.90
52509;DHT22;38420;53.150;6.370;2023-02-28T12:54:44;8.20;99.90
52509;DHT22;38420;53.150;6.370;2023-02-28T13:00:19;8.20;99.90
52509;DHT22;38420;53.150;6.370;2023-02-28T13:06:09;8.10;99.90
52509;DHT22;38420;53.150;6.370;2023-02-28T13:11:23;8.00;99.90
52509;DHT22;38420;53.150;6.370;2023-02-28T13:13:57;8.00;99.90
52509;DHT22;38420;53.150;6.370;2023-02-28T13:16:23;7.90;99.90
52509;DHT22;38420;53.150;6.370;2023-02-28T13:18:49;7.90;99.90
52509;DHT22;38420;53.150;6.370;2023-02-28T13:21:30;7.90;99.90
52509;DHT22;38420;53.150;6.370;2023-02-28T13:24:07;8.00;99.90
52509;DHT22;38420;53.150;6.370;2023-02-28T13:29:30;8.10;99.90
52509;DHT22;38420;53.150;6.370;2023-02-28T13:34:35;8.20;99.90
52509;DHT22;38420;53.150;6.370;2023-02-28T13:47:44;8.20;99.90
52509;DHT22;38420;53.150;6.370;2023-02-28T13:50:23;8.20;99.90
52509;DHT22;38420;53.150;6.370;2023-02-28T14:11:36;7.70;99.90
52509;DHT22;38420;53.150;6.370;2023-02-28T14:14:03;7.60;99.90
52509;DHT22;38420;53.150;6.370;2023-02-28T14:16:45;7.40;99.90
52509;DHT22;38420;53.150;6.370;2023-02-28T14:19:35;7.30;99.90
52509;DHT22;38420;53.150;6.370;2023-02-28T14:27:48;7.40;99.90
52509;DHT22;38420;53.150;6.370;2023-02-28T14:39:21;7.90;99.90
52509;DHT22;38420;53.150;6.370;2023-02-28T14:41:46;7.90;99.90
52509;DHT22;38420;53.150;6.370;2023-02-28T14:46:43;8.00;99.90
52509;DHT22;38420;53.150;6.370;2023-02-28T14:49:20;8.10;99.90
52509;DHT22;38420;53.150;6.370;2023-02-28T14:51:49;7.80;99.90
52509;DHT22;38420;53.150;6.370;2023-02-28T14:54:18;7.70;99.90
52509;DHT22;38420;53.150;6.370;2023-02-28T14:56:50;7.60;99.90
52509;DHT22;38420;53.150;6.370;2023-02-28T14:59:28;7.70;99.90
52509;DHT22;38420;53.150;6.370;2023-02-28T15:02:35;7.70;99.90
52509;DHT22;38420;53.150;6.370;2023-02-28T15:07:45;7.50;99.90
52509;DHT22;38420;53.150;6.370;2023-02-28T15:12:37;7.40;99.90
52509;DHT22;38420;53.150;6.370;2023-02-28T15:15:06;7.40;99.90
52509;DHT22;38420;53.150;6.370;2023-02-28T15:17:34;7.30;99.90
52509;DHT22;38420;53.150;6.370;2023-02-28T15:20:00;7.30;99.90
52509;DHT22;38420;53.150;6.370;2023-02-28T15:22:35;7.30;99.90
52509;DHT22;38420;53.150;6.370;2023-02-28T15:25:02;7.30;99.90
52509;DHT22;38420;53.150;6.370;2023-02-28T15:27:32;7.30;99.90
52509;DHT22;38420;53.150;6.370;2023-02-28T15:30:07;7.40;99.90
52509;DHT22;38420;53.150;6.370;2023-02-28T15:32:36;7.50;99.90
52509;DHT22;38420;53.150;6.370;2023-02-28T15:37:55;7.50;99.90
52509;DHT22;38420;53.150;6.370;2023-02-28T15:43:11;7.50;99.90
52509;DHT22;38420;53.150;6.370;2023-02-28T15:45:50;7.50;99.90
52509;DHT22;38420;53.150;6.370;2023-02-28T15:48:25;7.50;99.90
52509;DHT22;38420;53.150;6.370;2023-02-28T15:50:56;7.50;99.90
52509;DHT22;38420;53.150;6.370;2023-02-28T15:53:24;7.50;99.90
52509;DHT22;38420;53.150;6.370;2023-02-28T15:55:57;7.60;99.90
52509;DHT22;38420;53.150;6.370;2023-02-28T15:58:24;7.40;99.90
52509;DHT22;38420;53.150;6.370;2023-02-28T16:03:51;7.40;99.90
52509;DHT22;38420;53.150;6.370;2023-02-28T16:08:58;7.40;99.90
52509;DHT22;38420;53.150;6.370;2023-02-28T16:11:24;7.50;99.90
52509;DHT22;38420;53.150;6.370;2023-02-28T16:13:50;7.50;99.90
52509;DHT22;38420;53.150;6.370;2023-02-28T16:16:21;7.50;99.90
52509;DHT22;38420;53.150;6.370;2023-02-28T16:18:48;7.50;99.90
52509;DHT22;38420;53.150;6.370;2023-02-28T16:21:13;7.50;99.90
52509;DHT22;38420;53.150;6.370;2023-02-28T16:23:39;7.50;99.90
52509;DHT22;38420;53.150;6.370;2023-02-28T16:26:05;7.60;99.90
52509;DHT22;38420;53.150;6.370;2023-02-28T16:28:35;7.90;99.90
52509;DHT22;38420;53.150;6.370;2023-02-28T16:31:02;7.90;99.90
52509;DHT22;38420;53.150;6.370;2023-02-28T16:33:30;7.90;99.90
52509;DHT22;38420;53.150;6.370;2023-02-28T16:35:56;7.80;99.90
52509;DHT22;38420;53.150;6.370;2023-02-28T16:38:21;7.60;99.90
52509;DHT22;38420;53.150;6.370;2023-02-28T16:40:49;7.40;99.90
52509;DHT22;38420;53.150;6.370;2023-02-28T16:43:17;7.30;99.90
52509;DHT22;38420;53.150;6.370;2023-02-28T16:45:44;7.30;99.90
52509;DHT22;38420;53.150;6.370;2023-02-28T16:48:15;7.10;99.90
52509;DHT22;38420;53.150;6.370;2023-02-28T16:50:42;7.10;99.90
52509;DHT22;38420;53.150;6.370;2023-02-28T16:53:10;7.20;99.90
52509;DHT22;38420;53.150;6.370;2023-02-28T16:55:35;7.00;99.90
52509;DHT22;38420;53.150;6.370;2023-02-28T16:58:02;6.80;99.90
52509;DHT22;38420;53.150;6.370;2023-02-28T17:00:29;6.60;99.90
52509;DHT22;38420;53.150;6.370;2023-02-28T17:02:56;6.50;99.90
52509;DHT22;38420;53.150;6.370;2023-02-28T17:05:22;6.50;99.90
52509;DHT22;38420;53.150;6.370;2023-02-28T17:07:49;6.40;99.90
52509;DHT22;38420;53.150;6.370;2023-02-28T17:10:20;6.30;99.90
52509;DHT22;38420;53.150;6.370;2023-02-28T17:12:46;6.20;99.90
52509;DHT22;38420;53.150;6.370;2023-02-28T17:15:14;6.00;99.90
52509;DHT22;38420;53.150;6.370;2023-02-28T17:17:41;6.00;99.90
52509;DHT22;38420;53.150;6.370;2023-02-28T17:20:21;5.90;99.90
52509;DHT22;38420;53.150;6.370;2023-02-28T17:22:52;5.80;99.90
52509;DHT22;38420;53.150;6.370;2023-02-28T17:25:18;5.70;99.90
52509;DHT22;38420;53.150;6.370;2023-02-28T17:27:44;5.70;99.90
52509;DHT22;38420;53.150;6.370;2023-02-28T17:30:22;5.60;99.90
52509;DHT22;38420;53.150;6.370;2023-02-28T17:32:48;5.40;99.90
52509;DHT22;38420;53.150;6.370;2023-02-28T17:35:14;5.30;99.90
52509;DHT22;38420;53.150;6.370;2023-02-28T17:37:41;5.40;99.90
52509;DHT22;38420;53.150;6.370;2023-02-28T17:40:15;5.00;99.90
52509;DHT22;38420;53.150;6.370;2023-02-28T17:42:42;4.90;99.90
52509;DHT22;38420;53.150;6.370;2023-02-28T17:45:08;4.80;99.90
52509;DHT22;38420;53.150;6.370;2023-02-28T17:47:34;4.70;99.90
52509;DHT22;38420;53.150;6.370;2023-02-28T17:50:00;4.70;99.90
52509;DHT22;38420;53.150;6.370;2023-02-28T17:52:26;4.70;99.90
52509;DHT22;38420;53.150;6.370;2023-02-28T17:54:52;4.70;99.90
52509;DHT22;38420;53.150;6.370;2023-02-28T17:57:17;4.60;99.90
52509;DHT22;38420;53.150;6.370;2023-02-28T17:59:45;4.60;99.90
52509;DHT22;38420;53.150;6.370;2023-02-28T18:02:13;4.50;99.90
52509;DHT22;38420;53.150;6.370;2023-02-28T18:04:38;4.40;99.90
52509;DHT22;38420;53.150;6.370;2023-02-28T18:07:06;4.40;99.90
52509;DHT22;38420;53.150;6.370;2023-02-28T18:09:34;4.30;99.90
52509;DHT22;38420;53.150;6.370;2023-02-28T18:12:00;4.20;99.90
52509;DHT22;38420;53.150;6.370;2023-02-28T18:14:25;4.20;99.90
52509;DHT22;38420;53.150;6.370;2023-02-28T18:16:52;4.10;99.90
52509;DHT22;38420;53.150;6.370;2023-02-28T18:19:19;4.10;99.90
52509;DHT22;38420;53.150;6.370;2023-02-28T18:21:47;4.00;99.90
52509;DHT22;38420;53.150;6.370;2023-02-28T18:24:15;4.10;99.90
52509;DHT22;38420;53.150;6.370;2023-02-28T18:26:41;4.10;99.90
52509;DHT22;38420;53.150;6.370;2023-02-28T18:29:08;4.00;99.90
52509;DHT22;38420;53.150;6.370;2023-02-28T18:31:34;4.00;99.90
52509;DHT22;38420;53.150;6.370;2023-02-28T18:34:00;4.00;99.90
52509;DHT22;38420;53.150;6.370;2023-02-28T18:36:26;4.00;99.90